Terminal Aerodrome Forecast
Issued by NWS

Current Version | Previous Version | Graphics & Text | Print | Product List | Glossary On
Versions: 1 2 3 4 5 6 7 8 9 10 11 12 13 14 15 16
000
FTUS41 KPBZ 171723
TAFMGW
TAF
KMGW 171723Z 1718/1818 00000KT P6SM BKN050
     FM180000 00000KT P6SM SCT250
     FM180700 00000KT 1SM BR SCT001
     FM181200 00000KT P6SM SCT250
     FM181600 00000KT P6SM SCT025=

USA.gov is the U.S. government's official web portal to all federal, state and local government web resources and services.